Time;durP1;ratioP1;P1;durP2;ratioP2;P2;SDS_P1;SDS_P2;PMS_P1;PMS_P2;Temp;Humidity;BMP_temperature;BMP_pressure;BME280_temperature;BME280_humidity;BME280_pressure;Samples;Min_cycle;Max_cycle;Signal;HPM_P1;HPM_P2
2022/02/16 00:00:19;;;;;;;3.08;1.90;;;6.00;99.90;;;;;;5008597;28;20045;-73
2022/02/16 00:02:46;;;;;;;2.13;1.92;;;6.00;99.90;;;;;;5020007;28;20631;-74
2022/02/16 00:05:13;;;;;;;3.67;2.08;;;5.90;99.90;;;;;;5002529;28;20033;-74
2022/02/16 00:07:41;;;;;;;3.78;2.53;;;5.90;99.90;;;;;;4997928;28;20050;-75
2022/02/16 00:10:10;;;;;;;1.95;1.85;;;6.00;99.90;;;;;;5012104;28;20056;-75
2022/02/16 00:12:37;;;;;;;2.33;1.70;;;5.90;99.90;;;;;;5015249;28;20545;-73
2022/02/16 00:15:06;;;;;;;2.83;1.60;;;5.90;99.90;;;;;;5032654;28;20067;-75
2022/02/16 00:17:34;;;;;;;3.63;1.60;;;5.90;99.90;;;;;;5027599;28;20046;-73
2022/02/16 00:20:01;;;;;;;2.08;1.63;;;5.90;99.90;;;;;;5037990;28;20032;-75
2022/02/16 00:22:29;;;;;;;2.50;1.63;;;5.90;99.90;;;;;;5024105;28;20045;-77
2022/02/16 00:24:56;;;;;;;2.10;1.70;;;5.90;99.90;;;;;;5032532;28;20036;-75
2022/02/16 00:27:23;;;;;;;2.40;2.20;;;5.90;99.90;;;;;;5016055;28;20046;-73
2022/02/16 00:29:50;;;;;;;3.55;1.40;;;5.90;99.90;;;;;;5027698;28;20046;-74
2022/02/16 00:32:17;;;;;;;1.85;1.75;;;6.00;99.90;;;;;;4993191;28;20049;-74
2022/02/16 00:34:44;;;;;;;1.70;1.60;;;6.00;99.90;;;;;;5012446;28;20115;-74
2022/02/16 00:37:11;;;;;;;1.63;1.50;;;6.00;99.90;;;;;;5025280;28;20541;-76
2022/02/16 00:39:38;;;;;;;1.50;1.40;;;6.00;99.90;;;;;;5009173;28;20049;-74
2022/02/16 00:42:05;;;;;;;2.72;2.00;;;6.00;99.90;;;;;;5013298;28;20049;-73
2022/02/16 00:44:32;;;;;;;5.00;2.83;;;6.10;99.90;;;;;;5002548;28;20103;-74
2022/02/16 00:46:59;;;;;;;2.28;1.80;;;6.10;99.90;;;;;;4995865;28;20045;-75
2022/02/16 00:49:26;;;;;;;1.60;1.50;;;6.00;99.90;;;;;;5024957;28;20079;-72
2022/02/16 00:51:53;;;;;;;3.95;1.73;;;6.00;99.90;;;;;;5030068;28;20442;-76
2022/02/16 00:54:27;;;;;;;1.42;1.33;;;6.00;99.90;;;;;;5030535;28;20056;-75
2022/02/16 00:56:53;;;;;;;2.20;1.40;;;5.90;99.90;;;;;;5030601;28;20052;-75
2022/02/16 00:59:25;;;;;;;1.50;1.40;;;6.00;99.90;;;;;;5029016;28;20045;-76
2022/02/16 01:01:55;;;;;;;1.38;1.27;;;6.00;99.90;;;;;;5020647;28;20048;-74
2022/02/16 01:04:24;;;;;;;1.10;1.10;;;6.00;99.90;;;;;;4995186;28;20550;-75
2022/02/16 01:06:55;;;;;;;1.20;1.10;;;6.00;99.90;;;;;;4977755;28;20481;-74
2022/02/16 01:09:22;;;;;;;2.45;1.10;;;6.00;99.90;;;;;;5007402;28;20664;-74
2022/02/16 01:11:51;;;;;;;1.90;1.00;;;5.90;99.90;;;;;;5010482;28;20049;-73
2022/02/16 01:14:19;;;;;;;1.23;1.00;;;5.90;99.90;;;;;;4997136;28;20818;-76
2022/02/16 01:17:05;;;;;;;1.10;1.00;;;5.90;99.90;;;;;;5031725;28;20540;-74
2022/02/16 01:19:51;;;;;;;1.98;1.10;;;5.90;99.90;;;;;;5024741;28;20057;-73
2022/02/16 01:22:17;;;;;;;1.85;1.00;;;5.90;99.90;;;;;;5023362;28;20124;-74
2022/02/16 01:24:44;;;;;;;1.73;0.75;;;5.90;99.90;;;;;;5030975;28;20509;-76
2022/02/16 01:27:12;;;;;;;2.92;1.33;;;5.90;99.90;;;;;;5029772;28;20052;-74
2022/02/16 01:29:39;;;;;;;0.80;0.80;;;5.90;99.90;;;;;;5030318;28;20045;-74
2022/02/16 01:32:20;;;;;;;1.35;0.90;;;5.90;99.90;;;;;;5022885;28;20071;-73
2022/02/16 01:34:47;;;;;;;1.90;0.80;;;5.90;99.90;;;;;;5011564;28;20153;-74
2022/02/16 01:37:14;;;;;;;1.95;0.93;;;5.90;99.90;;;;;;4995114;28;20851;-72
2022/02/16 01:39:41;;;;;;;1.20;1.00;;;5.90;99.90;;;;;;5009436;28;20112;-72
2022/02/16 01:42:14;;;;;;;2.35;1.17;;;5.90;99.90;;;;;;4997542;28;20240;-73
2022/02/16 01:44:45;;;;;;;4.32;1.25;;;5.90;99.90;;;;;;4994266;28;20050;-74
2022/02/16 01:47:13;;;;;;;2.25;1.40;;;6.00;99.90;;;;;;4997847;28;20049;-73
2022/02/16 01:49:41;;;;;;;2.05;1.50;;;6.00;99.90;;;;;;5007833;28;20048;-72
2022/02/16 01:52:09;;;;;;;4.28;1.90;;;6.00;99.90;;;;;;5030831;28;20059;-73
2022/02/16 01:54:40;;;;;;;1.40;1.30;;;6.00;99.90;;;;;;5002004;28;20483;-73
2022/02/16 01:57:08;;;;;;;1.65;1.40;;;6.00;99.90;;;;;;4997360;28;20140;-74
2022/02/16 01:59:42;;;;;;;1.85;1.35;;;6.00;99.90;;;;;;4996639;28;20041;-74
2022/02/16 02:02:11;;;;;;;1.30;1.20;;;6.00;99.90;;;;;;4995206;28;20041;-73
2022/02/16 02:04:40;;;;;;;2.08;1.27;;;6.00;99.90;;;;;;4981038;28;20072;-74
2022/02/16 02:07:11;;;;;;;1.00;1.00;;;5.90;99.90;;;;;;4995772;28;20041;-73
2022/02/16 02:09:38;;;;;;;1.40;1.30;;;5.90;99.90;;;;;;5012444;28;20080;-73
2022/02/16 02:12:05;;;;;;;1.33;1.20;;;5.90;99.90;;;;;;5006287;28;20056;-73
2022/02/16 02:14:37;;;;;;;1.23;1.13;;;5.90;99.90;;;;;;5015205;28;20059;-73
2022/02/16 02:17:06;;;;;;;1.70;1.40;;;5.90;99.90;;;;;;5015673;28;20063;-74
2022/02/16 02:19:34;;;;;;;2.00;1.27;;;6.00;99.90;;;;;;5029923;28;20035;-74
2022/02/16 02:22:01;;;;;;;3.20;1.40;;;5.90;99.90;;;;;;5019643;28;20050;-71
2022/02/16 02:24:29;;;;;;;2.33;1.52;;;5.90;99.90;;;;;;5036798;28;20052;-73
2022/02/16 02:26:56;;;;;;;1.35;1.25;;;5.90;99.90;;;;;;5036022;28;20706;-74
2022/02/16 02:29:23;;;;;;;1.40;1.30;;;6.00;99.90;;;;;;5000609;28;20685;-73
2022/02/16 02:31:57;;;;;;;1.52;0.98;;;5.90;99.90;;;;;;5000494;28;20232;-74
2022/02/16 02:34:25;;;;;;;1.77;1.20;;;6.00;99.90;;;;;;5015908;28;20044;-73
2022/02/16 02:36:51;;;;;;;1.38;0.70;;;6.00;99.90;;;;;;5008922;28;20064;-72
2022/02/16 02:39:19;;;;;;;1.33;1.08;;;6.00;99.90;;;;;;5008728;28;20049;-74
2022/02/16 02:41:46;;;;;;;1.00;0.90;;;6.00;99.90;;;;;;5014522;28;20077;-72
2022/02/16 02:44:12;;;;;;;1.80;1.10;;;6.00;99.90;;;;;;4999652;28;20095;-74
2022/02/16 02:46:42;;;;;;;1.10;1.00;;;6.00;99.90;;;;;;5015144;28;20111;-73
2022/02/16 02:49:10;;;;;;;1.05;0.95;;;6.00;99.90;;;;;;5006366;28;20049;-74
2022/02/16 02:51:38;;;;;;;2.63;1.40;;;6.00;99.90;;;;;;5031775;28;20804;-73
2022/02/16 02:54:04;;;;;;;2.10;1.05;;;6.00;99.90;;;;;;5031968;28;20057;-73
2022/02/16 02:56:38;;;;;;;1.45;0.80;;;5.90;99.90;;;;;;5016755;28;20055;-74
2022/02/16 02:59:05;;;;;;;1.85;0.70;;;6.00;99.90;;;;;;5015882;28;20095;-75
2022/02/16 03:01:33;;;;;;;1.63;0.90;;;6.00;99.90;;;;;;5014251;28;20037;-73
2022/02/16 03:03:59;;;;;;;1.73;1.08;;;6.00;99.90;;;;;;4995847;28;20750;-72
2022/02/16 03:06:32;;;;;;;2.03;1.08;;;6.00;99.90;;;;;;4995596;28;20506;-73
2022/02/16 03:08:58;;;;;;;0.98;0.75;;;6.00;99.90;;;;;;5006431;28;20057;-73
2022/02/16 03:11:26;;;;;;;3.38;0.95;;;6.10;99.90;;;;;;4998638;28;20064;-72
2022/02/16 03:13:52;;;;;;;1.33;0.73;;;6.00;99.90;;;;;;5021849;28;20052;-73
2022/02/16 03:16:29;;;;;;;0.98;0.90;;;6.00;99.90;;;;;;5011860;28;20094;-74
2022/02/16 03:18:58;;;;;;;1.30;0.90;;;6.10;99.90;;;;;;4999122;28;20072;-71
2022/02/16 03:21:24;;;;;;;1.77;0.88;;;6.10;99.90;;;;;;4995113;28;20045;-74
2022/02/16 03:23:54;;;;;;;1.40;0.77;;;6.10;99.90;;;;;;4994813;28;20045;-74
2022/02/16 03:26:21;;;;;;;1.17;0.85;;;6.10;99.90;;;;;;4994984;28;20042;-74
2022/02/16 03:28:49;;;;;;;1.13;0.70;;;6.10;99.90;;;;;;4994110;28;20056;-73
2022/02/16 03:31:26;;;;;;;1.05;0.70;;;6.20;99.90;;;;;;4996977;28;20080;-74
2022/02/16 03:33:59;;;;;;;0.80;0.80;;;6.20;99.90;;;;;;5014734;28;20147;-74
2022/02/16 03:36:27;;;;;;;1.40;0.98;;;6.30;99.90;;;;;;4994604;28;20053;-74
2022/02/16 03:38:55;;;;;;;0.88;0.77;;;6.30;99.90;;;;;;5011775;28;20052;-75
2022/02/16 03:41:26;;;;;;;0.98;0.70;;;6.30;99.90;;;;;;4997829;28;20259;-73
2022/02/16 03:43:53;;;;;;;1.33;1.02;;;6.20;99.90;;;;;;5021835;28;20379;-77
2022/02/16 03:46:23;;;;;;;0.98;0.80;;;6.20;99.90;;;;;;5030924;28;20049;-74
2022/02/16 03:48:50;;;;;;;1.35;1.10;;;6.30;99.90;;;;;;4994453;28;20052;-74
2022/02/16 03:51:17;;;;;;;1.10;1.00;;;6.30;99.90;;;;;;5014554;28;20055;-74
2022/02/16 03:53:44;;;;;;;1.40;1.17;;;6.30;99.90;;;;;;4999295;28;20118;-72
2022/02/16 03:56:11;;;;;;;1.35;1.02;;;6.30;99.90;;;;;;4993903;28;20049;-74
2022/02/16 03:58:40;;;;;;;1.20;1.10;;;6.40;99.90;;;;;;4994648;28;20133;-72
2022/02/16 04:01:08;;;;;;;1.30;0.80;;;6.30;99.90;;;;;;4978777;28;20045;-73
2022/02/16 04:03:35;;;;;;;1.33;1.23;;;6.40;99.90;;;;;;5010444;28;20057;-72
2022/02/16 04:06:02;;;;;;;1.35;0.80;;;6.40;99.90;;;;;;4995021;28;20038;-73
2022/02/16 04:08:28;;;;;;;0.80;0.80;;;6.40;99.90;;;;;;5015698;28;20045;-71
2022/02/16 04:10:56;;;;;;;0.90;0.90;;;6.50;99.90;;;;;;5008378;28;20056;-71
2022/02/16 04:13:23;;;;;;;1.02;0.93;;;6.50;99.90;;;;;;5020121;28;20064;-71
2022/02/16 04:15:52;;;;;;;1.02;1.00;;;6.60;99.90;;;;;;5035626;28;20493;-74
2022/02/16 04:18:19;;;;;;;1.83;1.20;;;6.60;99.90;;;;;;5023894;28;20045;-73
2022/02/16 04:20:46;;;;;;;3.03;2.25;;;6.60;99.90;;;;;;5014440;28;20125;-73
2022/02/16 04:23:17;;;;;;;1.35;1.23;;;6.60;99.90;;;;;;4998174;28;20240;-72
2022/02/16 04:25:44;;;;;;;1.20;1.10;;;6.70;99.90;;;;;;5014768;28;20055;-72
2022/02/16 04:28:13;;;;;;;1.25;1.13;;;6.70;99.90;;;;;;5014710;28;20056;-72
2022/02/16 04:30:41;;;;;;;1.02;0.90;;;6.70;99.90;;;;;;4997432;28;20364;-74
2022/02/16 04:33:09;;;;;;;1.15;0.90;;;6.80;99.90;;;;;;5027462;28;20053;-75
2022/02/16 04:35:38;;;;;;;0.85;0.85;;;6.80;99.90;;;;;;4993844;28;20152;-73
2022/02/16 04:38:08;;;;;;;1.30;1.20;;;6.80;99.90;;;;;;4998554;28;20237;-74
2022/02/16 04:40:35;;;;;;;1.10;1.00;;;6.80;99.90;;;;;;5012734;28;20600;-73
2022/02/16 04:43:05;;;;;;;1.30;1.08;;;6.80;99.90;;;;;;5013353;28;20102;-74
2022/02/16 04:45:33;;;;;;;2.13;1.20;;;6.80;99.90;;;;;;5030254;28;20049;-72
2022/02/16 04:48:03;;;;;;;1.10;1.10;;;6.90;99.90;;;;;;5010507;28;20485;-75
2022/02/16 04:50:30;;;;;;;2.88;1.27;;;6.90;99.90;;;;;;4994721;28;20143;-74
2022/02/16 04:52:57;;;;;;;1.05;0.95;;;6.90;99.90;;;;;;4997173;28;20060;-74
2022/02/16 04:55:35;;;;;;;1.60;0.85;;;6.90;99.90;;;;;;5012383;28;20044;-75
2022/02/16 04:58:09;;;;;;;1.52;1.23;;;6.90;99.90;;;;;;4995768;28;20084;-75
2022/02/16 05:00:36;;;;;;;3.42;1.10;;;6.90;99.90;;;;;;5013121;28;20444;-73
2022/02/16 05:03:13;;;;;;;1.02;1.02;;;6.90;99.90;;;;;;5012551;28;20049;-75
2022/02/16 05:05:40;;;;;;;0.82;0.82;;;6.90;99.90;;;;;;4998340;28;20738;-76
2022/02/16 05:08:08;;;;;;;1.10;0.98;;;6.90;99.90;;;;;;5010931;28;20513;-75
2022/02/16 05:10:34;;;;;;;1.13;1.02;;;6.90;99.90;;;;;;5009671;28;20135;-72
2022/02/16 05:13:06;;;;;;;0.90;0.90;;;6.90;99.90;;;;;;5011568;28;20049;-75
2022/02/16 05:15:33;;;;;;;0.80;0.63;;;6.90;99.90;;;;;;5028081;28;20049;-73
2022/02/16 05:17:59;;;;;;;0.65;0.60;;;6.80;99.90;;;;;;5012800;28;20139;-74
2022/02/16 05:20:44;;;;;;;1.15;0.77;;;6.90;99.90;;;;;;5011307;28;20709;-75
2022/02/16 05:23:11;;;;;;;0.70;0.70;;;6.90;99.90;;;;;;4996960;28;20561;-74
2022/02/16 05:25:38;;;;;;;2.00;0.80;;;7.00;99.90;;;;;;4995337;28;20049;-75
2022/02/16 05:28:07;;;;;;;0.80;0.80;;;7.00;99.90;;;;;;5017042;28;20099;-74
2022/02/16 05:30:34;;;;;;;0.98;0.98;;;7.00;99.90;;;;;;5000231;28;20102;-73
2022/02/16 05:33:01;;;;;;;0.80;0.80;;;7.00;99.90;;;;;;5017279;28;20060;-74
2022/02/16 05:35:29;;;;;;;1.85;1.33;;;7.10;99.90;;;;;;5000493;28;20075;-72
2022/02/16 05:37:56;;;;;;;2.15;0.90;;;7.00;99.90;;;;;;5016026;28;20048;-73
2022/02/16 05:40:26;;;;;;;1.13;0.77;;;7.00;99.90;;;;;;4998543;28;20321;-75
2022/02/16 05:42:53;;;;;;;0.55;0.55;;;7.00;99.90;;;;;;5000318;28;20088;-75
2022/02/16 05:45:21;;;;;;;1.13;0.73;;;7.00;99.90;;;;;;5034762;28;20075;-76
2022/02/16 05:47:48;;;;;;;0.70;0.70;;;7.00;99.90;;;;;;5019947;28;20041;-75
2022/02/16 05:50:15;;;;;;;0.98;0.60;;;7.00;99.90;;;;;;5013022;28;20051;-74
2022/02/16 05:52:45;;;;;;;0.73;0.73;;;7.00;99.90;;;;;;5015849;28;20132;-72
2022/02/16 05:55:12;;;;;;;2.00;0.57;;;7.00;99.90;;;;;;4999436;28;20048;-73
2022/02/16 05:57:39;;;;;;;1.48;0.75;;;7.00;99.90;;;;;;4998750;28;20057;-75
2022/02/16 06:00:07;;;;;;;1.30;0.90;;;7.00;99.90;;;;;;4996927;28;20077;-74
2022/02/16 06:02:43;;;;;;;2.33;1.48;;;7.00;99.90;;;;;;5029528;28;20441;-74
2022/02/16 06:05:14;;;;;;;3.50;1.52;;;7.00;99.90;;;;;;5011769;28;20072;-74
2022/02/16 06:07:41;;;;;;;1.58;0.85;;;7.00;99.90;;;;;;4996140;28;20049;-75
2022/02/16 06:10:09;;;;;;;1.50;1.00;;;7.10;99.90;;;;;;5015194;28;20122;-74
2022/02/16 06:12:40;;;;;;;0.70;0.70;;;7.10;99.90;;;;;;5012828;28;20746;-73
2022/02/16 06:15:08;;;;;;;0.93;0.93;;;7.10;99.90;;;;;;5011456;28;20060;-75
2022/02/16 06:17:38;;;;;;;1.02;0.93;;;7.20;99.90;;;;;;5016162;28;20060;-74
2022/02/16 06:20:08;;;;;;;0.90;0.90;;;7.20;99.90;;;;;;5001658;28;20124;-74
2022/02/16 06:22:35;;;;;;;1.10;1.00;;;7.30;99.90;;;;;;5013129;28;20071;-74
2022/02/16 06:25:05;;;;;;;1.40;1.30;;;7.30;99.90;;;;;;4993766;28;20538;-75
2022/02/16 06:27:34;;;;;;;1.55;1.33;;;7.30;99.90;;;;;;4994244;28;20533;-72
2022/02/16 06:30:06;;;;;;;1.10;1.10;;;7.30;99.90;;;;;;4978926;28;20061;-74
2022/02/16 06:32:39;;;;;;;1.10;1.05;;;7.40;99.90;;;;;;4997019;28;20052;-73
2022/02/16 06:35:06;;;;;;;0.90;0.90;;;7.30;99.90;;;;;;4995874;28;20147;-73
2022/02/16 06:37:33;;;;;;;1.08;0.90;;;7.30;99.90;;;;;;4994838;28;20426;-75
2022/02/16 06:40:00;;;;;;;1.25;1.15;;;7.30;99.90;;;;;;5014448;28;20064;-75
2022/02/16 06:42:28;;;;;;;1.45;1.35;;;7.30;99.90;;;;;;5012804;28;20048;-74
2022/02/16 06:44:56;;;;;;;1.08;1.08;;;7.30;99.90;;;;;;5028661;28;20037;-75
2022/02/16 06:47:32;;;;;;;1.33;1.00;;;7.40;99.90;;;;;;5023338;28;20061;-73
2022/02/16 06:49:59;;;;;;;1.20;1.20;;;7.40;99.90;;;;;;5014890;28;20056;-72
2022/02/16 06:52:26;;;;;;;1.00;1.00;;;7.40;99.90;;;;;;5015054;28;20056;-72
2022/02/16 06:54:53;;;;;;;1.60;1.52;;;7.50;99.90;;;;;;4997683;28;20075;-72
2022/02/16 06:57:20;;;;;;;1.83;1.73;;;7.50;99.90;;;;;;5014992;28;20594;-74
2022/02/16 06:59:56;;;;;;;2.00;1.90;;;7.60;99.90;;;;;;5011817;28;20132;-73
2022/02/16 07:02:23;;;;;;;1.75;1.70;;;7.60;99.90;;;;;;4979446;28;20045;-74
2022/02/16 07:04:50;;;;;;;1.90;1.80;;;7.60;99.90;;;;;;5012022;28;20099;-74
2022/02/16 07:07:17;;;;;;;1.92;1.83;;;7.70;99.90;;;;;;4997008;28;20497;-73
2022/02/16 07:09:44;;;;;;;2.20;2.10;;;7.70;99.90;;;;;;5012224;28;20068;-74
2022/02/16 07:12:11;;;;;;;2.80;2.70;;;7.80;99.90;;;;;;5014059;28;20049;-76
2022/02/16 07:14:43;;;;;;;2.60;2.50;;;7.80;99.90;;;;;;5027426;28;20236;-73
2022/02/16 07:17:10;;;;;;;2.38;2.28;;;7.80;99.90;;;;;;5024816;28;20139;-72
2022/02/16 07:19:37;;;;;;;2.30;2.20;;;7.90;99.90;;;;;;5016617;28;20048;-74
2022/02/16 07:22:23;;;;;;;2.60;2.50;;;8.00;99.90;;;;;;5031563;28;20045;-72
2022/02/16 07:24:50;;;;;;;2.53;2.33;;;8.00;99.90;;;;;;5030463;28;20041;-75
2022/02/16 07:27:17;;;;;;;2.63;2.53;;;8.00;99.90;;;;;;5031063;28;20061;-74
2022/02/16 07:29:44;;;;;;;3.20;3.10;;;8.00;99.90;;;;;;5026494;28;20592;-73
2022/02/16 07:32:11;;;;;;;2.88;2.78;;;8.00;99.90;;;;;;5011826;28;20591;-73
2022/02/16 07:34:41;;;;;;;2.88;2.78;;;8.00;99.90;;;;;;4995451;28;20050;-76
2022/02/16 07:37:08;;;;;;;2.78;2.67;;;8.00;99.90;;;;;;4994886;28;20082;-73
2022/02/16 07:39:35;;;;;;;2.95;2.75;;;8.10;99.90;;;;;;5005400;28;20093;-75
2022/02/16 07:42:02;;;;;;;2.70;2.60;;;8.10;99.90;;;;;;5014189;28;20072;-73
2022/02/16 07:44:47;;;;;;;2.72;2.45;;;8.10;99.90;;;;;;5012699;28;20037;-74
2022/02/16 07:47:21;;;;;;;2.60;2.40;;;8.10;99.90;;;;;;5023614;28;20045;-75
2022/02/16 07:49:50;;;;;;;3.78;2.70;;;8.10;99.90;;;;;;4997868;28;20441;-77
2022/02/16 07:52:24;;;;;;;3.03;2.78;;;8.00;99.90;;;;;;5017216;28;20060;-76
2022/02/16 07:55:11;;;;;;;3.63;2.17;;;7.90;99.90;;;;;;5025383;28;20064;-75
2022/02/16 07:57:40;;;;;;;3.40;1.90;;;7.90;99.90;;;;;;5015929;28;20055;-75
2022/02/16 08:00:08;;;;;;;2.70;1.60;;;7.90;99.90;;;;;;5016031;28;20696;-74
2022/02/16 08:02:41;;;;;;;1.80;1.58;;;7.90;99.90;;;;;;5017021;28;20377;-75
2022/02/16 08:05:14;;;;;;;2.47;1.17;;;7.90;99.90;;;;;;5014769;28;20137;-74
2022/02/16 08:07:42;;;;;;;1.23;1.13;;;7.90;99.90;;;;;;4998216;28;20118;-73
2022/02/16 08:10:10;;;;;;;2.03;1.42;;;7.90;99.90;;;;;;4998576;28;20041;-75
2022/02/16 08:12:44;;;;;;;2.03;1.23;;;7.90;99.90;;;;;;5015440;28;20057;-74
2022/02/16 08:15:11;;;;;;;1.50;1.10;;;7.80;99.90;;;;;;5042214;28;20045;-73
2022/02/16 08:17:41;;;;;;;1.15;1.05;;;7.80;99.90;;;;;;5015933;28;20059;-74
2022/02/16 08:20:09;;;;;;;1.42;0.80;;;7.90;99.90;;;;;;5004811;28;20049;-74
2022/02/16 08:22:51;;;;;;;2.35;0.95;;;7.90;99.90;;;;;;5000188;28;20040;-75
2022/02/16 08:25:18;;;;;;;0.90;0.90;;;7.90;99.90;;;;;;5006628;28;20058;-73
2022/02/16 08:28:06;;;;;;;1.33;1.23;;;8.00;99.90;;;;;;5016482;28;20055;-75
2022/02/16 08:30:35;;;;;;;1.00;1.00;;;8.00;99.90;;;;;;5015343;28;20087;-73
2022/02/16 08:33:10;;;;;;;1.42;1.20;;;8.10;99.90;;;;;;4998818;28;20044;-73
2022/02/16 08:35:41;;;;;;;0.90;0.90;;;8.20;99.90;;;;;;5013863;28;20056;-75
2022/02/16 08:38:08;;;;;;;1.00;1.00;;;8.20;99.90;;;;;;5013168;28;20501;-75
2022/02/16 08:40:35;;;;;;;1.98;1.52;;;8.20;99.90;;;;;;5006896;28;20044;-74
2022/02/16 08:43:22;;;;;;;1.40;1.30;;;8.30;99.90;;;;;;4988570;28;20049;-74
2022/02/16 08:45:49;;;;;;;1.38;1.30;;;8.30;99.90;;;;;;5028717;28;20059;-76
2022/02/16 08:48:15;;;;;;;1.58;1.48;;;8.40;99.90;;;;;;5013364;28;20054;-75
2022/02/16 08:50:43;;;;;;;1.98;1.88;;;8.50;99.90;;;;;;4997791;28;20795;-76
2022/02/16 08:53:10;;;;;;;1.80;1.70;;;8.50;99.90;;;;;;4997581;28;20084;-72
2022/02/16 08:55:37;;;;;;;2.03;1.92;;;8.50;99.90;;;;;;5013224;28;20059;-76
2022/02/16 08:58:04;;;;;;;2.00;1.90;;;8.60;99.90;;;;;;4979108;28;20064;-74
2022/02/16 09:00:30;;;;;;;1.92;1.88;;;8.60;99.90;;;;;;5019639;28;20059;-74
2022/02/16 09:02:57;;;;;;;2.05;1.95;;;8.60;99.90;;;;;;5034339;28;20409;-73
2022/02/16 09:05:24;;;;;;;1.60;1.50;;;8.70;99.90;;;;;;5018499;28;20074;-74
2022/02/16 09:07:51;;;;;;;1.85;1.70;;;8.70;99.90;;;;;;5007270;28;20079;-76
2022/02/16 09:10:18;;;;;;;1.13;1.13;;;8.60;99.90;;;;;;5035474;28;20063;-76
2022/02/16 09:12:45;;;;;;;1.50;1.15;;;8.60;99.90;;;;;;5015615;28;20042;-74
2022/02/16 09:15:12;;;;;;;0.90;0.90;;;8.50;99.90;;;;;;5054363;28;20113;-75
2022/02/16 09:17:39;;;;;;;1.58;0.73;;;8.50;99.90;;;;;;5028109;28;20060;-75
2022/02/16 09:20:08;;;;;;;0.80;0.80;;;8.50;99.90;;;;;;5013901;28;20041;-74
2022/02/16 09:22:35;;;;;;;0.60;0.60;;;8.50;99.90;;;;;;5035614;28;20471;-74
2022/02/16 09:25:02;;;;;;;0.60;0.60;;;8.50;99.90;;;;;;5035950;28;20049;-75
2022/02/16 09:27:29;;;;;;;0.57;0.57;;;8.40;99.90;;;;;;5032555;28;20045;-76
2022/02/16 09:29:56;;;;;;;0.63;0.60;;;8.40;99.90;;;;;;5015482;28;20045;-74
2022/02/16 09:32:23;;;;;;;0.80;0.60;;;8.40;99.90;;;;;;5006809;28;20083;-74
2022/02/16 09:34:52;;;;;;;0.40;0.40;;;8.30;99.90;;;;;;5015838;28;20079;-75
2022/02/16 09:37:19;;;;;;;0.38;0.38;;;8.30;99.90;;;;;;5025602;28;20081;-74
2022/02/16 09:39:46;;;;;;;0.70;0.70;;;8.40;99.90;;;;;;5015763;28;20049;-78
2022/02/16 09:42:13;;;;;;;0.57;0.57;;;8.40;99.90;;;;;;5034823;28;20124;-75
2022/02/16 09:44:47;;;;;;;1.77;0.82;;;8.40;99.90;;;;;;5035899;28;20056;-74
2022/02/16 09:47:14;;;;;;;1.33;0.73;;;8.40;99.90;;;;;;5001400;28;20486;-75
2022/02/16 09:49:41;;;;;;;0.65;0.55;;;8.40;99.90;;;;;;5027004;28;20310;-71
2022/02/16 09:52:12;;;;;;;1.48;0.65;;;8.50;99.90;;;;;;5033001;28;20135;-74
2022/02/16 09:54:39;;;;;;;0.30;0.30;;;8.60;99.90;;;;;;5034262;28;20071;-74
2022/02/16 09:57:06;;;;;;;0.60;0.55;;;8.60;99.90;;;;;;5033053;28;20409;-75
2022/02/16 09:59:34;;;;;;;0.50;0.50;;;8.70;99.90;;;;;;5014686;28;20338;-75
2022/02/16 10:02:09;;;;;;;0.73;0.73;;;8.80;99.90;;;;;;5014850;28;20075;-75
2022/02/16 10:04:37;;;;;;;1.75;0.85;;;8.90;99.90;;;;;;5015483;28;20053;-75
2022/02/16 10:07:20;;;;;;;0.90;0.90;;;8.90;99.90;;;;;;4995367;28;20076;-72
2022/02/16 10:09:47;;;;;;;0.63;0.63;;;9.00;99.90;;;;;;5011460;28;20061;-79
2022/02/16 10:12:14;;;;;;;0.90;0.88;;;9.00;99.90;;;;;;5016496;28;20057;-74
2022/02/16 10:14:41;;;;;;;1.10;1.05;;;9.10;99.90;;;;;;5000710;28;20052;-73
2022/02/16 10:17:26;;;;;;;2.08;0.93;;;9.10;99.90;;;;;;5013167;28;20048;-73
2022/02/16 10:19:58;;;;;;;3.73;2.30;;;9.20;99.90;;;;;;5041244;28;20053;-75
2022/02/16 10:22:41;;;;;;;12.52;6.53;;;9.20;99.90;;;;;;5032786;28;20476;-73
2022/02/16 10:25:12;;;;;;;2.13;1.60;;;9.20;99.90;;;;;;5015423;28;20049;-73
2022/02/16 10:27:39;;;;;;;0.60;0.60;;;9.20;99.90;;;;;;5014590;28;20048;-74
2022/02/16 10:30:15;;;;;;;0.95;0.70;;;9.30;99.90;;;;;;5015467;28;20055;-73
2022/02/16 10:32:41;;;;;;;0.73;0.52;;;9.20;99.90;;;;;;5016245;28;20045;-73
2022/02/16 10:35:09;;;;;;;0.90;0.90;;;9.10;99.90;;;;;;5016841;28;20049;-73
2022/02/16 10:37:40;;;;;;;0.88;0.88;;;9.10;99.90;;;;;;5009112;28;20063;-75
2022/02/16 10:40:15;;;;;;;0.60;0.60;;;9.20;99.90;;;;;;5028314;28;20059;-73
2022/02/16 10:42:57;;;;;;;1.70;1.30;;;9.30;99.90;;;;;;5016281;28;20303;-74
2022/02/16 10:45:26;;;;;;;8.90;3.15;;;9.30;99.90;;;;;;4996926;28;20127;-73
2022/02/16 10:47:55;;;;;;;4.32;1.55;;;9.40;99.90;;;;;;5026962;28;20052;-75
2022/02/16 10:50:24;;;;;;;6.43;2.30;;;9.40;99.90;;;;;;5033165;28;20572;-72
2022/02/16 10:53:00;;;;;;;3.20;2.08;;;9.40;99.90;;;;;;5033324;28;20049;-74
2022/02/16 10:55:39;;;;;;;1.40;1.30;;;9.50;99.90;;;;;;5031566;28;20718;-73
2022/02/16 10:58:08;;;;;;;1.92;1.30;;;9.50;99.90;;;;;;4993346;28;20049;-74
2022/02/16 11:00:37;;;;;;;2.00;1.17;;;9.60;99.90;;;;;;5010866;28;20545;-72
2022/02/16 11:03:06;;;;;;;0.93;0.77;;;9.60;99.90;;;;;;4995790;28;20049;-78
2022/02/16 11:05:45;;;;;;;2.33;1.80;;;9.60;99.90;;;;;;5013427;28;20111;-74
2022/02/16 11:08:15;;;;;;;1.00;1.00;;;9.70;99.90;;;;;;5018185;28;20110;-74
2022/02/16 11:10:45;;;;;;;1.60;1.50;;;9.80;99.90;;;;;;5031857;28;20552;-74
2022/02/16 11:13:16;;;;;;;1.45;1.35;;;9.90;99.90;;;;;;5023821;28;20821;-71
2022/02/16 11:15:45;;;;;;;1.60;1.50;;;9.90;99.90;;;;;;5014932;28;20071;-75
2022/02/16 11:18:22;;;;;;;1.65;1.33;;;9.90;99.90;;;;;;5030820;28;20044;-73
2022/02/16 11:21:12;;;;;;;1.50;1.40;;;10.00;99.90;;;;;;5038264;28;20056;-73
2022/02/16 11:23:44;;;;;;;1.30;1.20;;;9.90;99.90;;;;;;5017388;28;20052;-75
2022/02/16 11:26:30;;;;;;;2.15;1.50;;;9.90;99.90;;;;;;4997606;28;20107;-75
2022/02/16 11:28:59;;;;;;;1.63;1.50;;;9.80;99.90;;;;;;4995104;28;20049;-74
2022/02/16 11:31:33;;;;;;;1.45;1.35;;;9.90;99.90;;;;;;5014005;28;20122;-75
2022/02/16 11:34:15;;;;;;;1.45;1.35;;;10.00;99.90;;;;;;5029991;28;20120;-74
2022/02/16 11:36:58;;;;;;;1.50;1.40;;;10.00;99.90;;;;;;5017781;28;20598;-74
2022/02/16 11:39:41;;;;;;;1.60;1.50;;;10.00;99.90;;;;;;5016949;28;20409;-73
2022/02/16 11:42:16;;;;;;;2.78;1.50;;;10.10;99.90;;;;;;5027541;28;20095;-74
2022/02/16 11:44:52;;;;;;;1.55;1.45;;;10.10;99.90;;;;;;5014083;28;20515;-75
2022/02/16 11:47:39;;;;;;;3.55;1.88;;;10.10;99.90;;;;;;5009586;28;20048;-74
2022/02/16 11:50:15;;;;;;;1.98;1.88;;;10.10;99.90;;;;;;5029265;28;20755;-73
2022/02/16 11:52:42;;;;;;;3.83;1.85;;;10.20;99.90;;;;;;5009935;28;20306;-74
2022/02/16 11:55:33;;;;;;;3.60;1.55;;;10.20;99.90;;;;;;5010549;28;20115;-74
2022/02/16 11:58:03;;;;;;;2.05;1.95;;;10.20;99.90;;;;;;4992322;28;20045;-73
2022/02/16 12:00:38;;;;;;;1.40;1.40;;;10.20;99.90;;;;;;5009865;28;20514;-73
2022/02/16 12:03:14;;;;;;;2.42;2.28;;;10.30;99.90;;;;;;5024318;28;20356;-74
2022/02/16 12:06:00;;;;;;;3.28;1.60;;;10.30;99.90;;;;;;5010497;28;20040;-72
2022/02/16 12:08:35;;;;;;;2.25;1.73;;;10.30;99.90;;;;;;5024210;28;20119;-74
2022/02/16 12:11:19;;;;;;;;;;;10.30;99.90;;;;;;5003880;28;20617;-75
2022/02/16 12:13:51;;;;;;;1.10;1.10;;;10.40;99.90;;;;;;4991480;28;19925;-75
2022/02/16 12:16:21;;;;;;;1.00;1.00;;;10.40;99.90;;;;;;5018637;28;20045;-74
2022/02/16 12:18:48;;;;;;;1.38;1.27;;;10.40;99.90;;;;;;5019713;28;20063;-72
2022/02/16 12:21:34;;;;;;;1.50;1.40;;;10.40;99.90;;;;;;5000928;28;20049;-73
2022/02/16 12:24:06;;;;;;;2.17;1.50;;;10.50;99.90;;;;;;4990852;28;20041;-71
2022/02/16 12:26:38;;;;;;;2.40;1.98;;;10.50;99.90;;;;;;5014199;28;20045;-75
2022/02/16 12:29:20;;;;;;;1.33;1.23;;;10.50;99.90;;;;;;5020833;28;20118;-74
2022/02/16 12:31:50;;;;;;;1.42;1.33;;;10.50;99.90;;;;;;5005761;28;20072;-71
2022/02/16 12:34:20;;;;;;;1.27;1.17;;;10.60;99.90;;;;;;5009284;28;20473;-74
2022/02/16 12:36:49;;;;;;;2.00;1.80;;;10.60;99.90;;;;;;5013264;28;20106;-73
2022/02/16 12:39:24;;;;;;;1.50;1.40;;;10.60;99.90;;;;;;5013552;28;20127;-74
2022/02/16 12:41:51;;;;;;;1.75;1.65;;;10.60;99.90;;;;;;5030975;28;20041;-74
2022/02/16 12:44:28;;;;;;;3.00;1.60;;;10.60;99.90;;;;;;4992989;28;20060;-73
2022/02/16 12:46:56;;;;;;;1.85;1.75;;;10.60;99.90;;;;;;5000857;28;20077;-73
2022/02/16 12:49:25;;;;;;;1.60;1.50;;;10.60;99.90;;;;;;5039835;28;20116;-75
2022/02/16 12:51:55;;;;;;;1.40;1.30;;;10.60;99.90;;;;;;5050985;28;20722;-74
2022/02/16 12:54:24;;;;;;;2.20;1.60;;;10.70;99.90;;;;;;4997883;28;20447;-73
2022/02/16 12:56:56;;;;;;;1.40;1.30;;;10.70;99.90;;;;;;4992215;28;20084;-73
2022/02/16 12:59:29;;;;;;;1.85;1.50;;;10.70;99.90;;;;;;5009714;28;20516;-74
2022/02/16 13:02:15;;;;;;;1.92;1.67;;;10.70;99.90;;;;;;4992962;28;20041;-73
2022/02/16 13:04:56;;;;;;;1.38;1.27;;;10.80;99.90;;;;;;4993534;28;20115;-74
2022/02/16 13:07:29;;;;;;;2.58;1.63;;;10.80;99.90;;;;;;5007832;28;20057;-75
2022/02/16 13:09:57;;;;;;;2.25;1.40;;;10.80;99.90;;;;;;5012416;28;20696;-74